Time;durP1;ratioP1;P1;durP2;ratioP2;P2;SDS_P1;SDS_P2;PMS_P1;PMS_P2;Temp;Humidity;BMP_temperature;BMP_pressure;BME280_temperature;BME280_humidity;BME280_pressure;Samples;Min_cycle;Max_cycle;Signal;HPM_P1;HPM_P2
2022/04/08 00:00:10;;;;;;;8.30;1.90;;;;;;;7.26;65.97;96848.00;104812;1271;76028;-27
2022/04/08 00:02:39;;;;;;;10.70;3.30;;;;;;;7.14;66.56;96849.98;104730;1271;74413;-26
2022/04/08 00:05:09;;;;;;;2.90;1.40;;;;;;;7.06;66.74;96849.17;104900;1271;61205;-26
2022/04/08 00:07:39;;;;;;;4.80;2.00;;;;;;;7.37;66.48;96847.21;104811;1271;62743;-26
2022/04/08 00:10:28;;;;;;;2.90;1.20;;;;;;;7.78;65.20;96841.48;104634;1273;76693;-26
2022/04/08 00:12:57;;;;;;;3.40;1.70;;;;;;;7.75;65.09;96845.39;104859;1271;76058;-26
2022/04/08 00:15:27;;;;;;;4.80;2.00;;;;;;;7.61;65.79;96842.04;104664;1271;74417;-26
2022/04/08 00:17:56;;;;;;;5.80;2.30;;;;;;;7.48;66.06;96837.37;104646;1271;62089;-26
2022/04/08 00:20:26;;;;;;;8.10;1.80;;;;;;;7.25;67.15;96834.13;104778;1271;62010;-26
2022/04/08 00:22:56;;;;;;;6.30;1.70;;;;;;;7.09;67.71;96830.27;104804;1272;75596;-26
2022/04/08 00:25:25;;;;;;;6.70;1.30;;;;;;;7.13;68.11;96829.70;104853;1271;76447;-26
2022/04/08 00:27:54;;;;;;;5.10;2.90;;;;;;;7.60;66.95;96824.14;104817;1271;73482;-26
2022/04/08 00:30:23;;;;;;;9.90;2.30;;;;;;;7.82;65.94;96817.95;104849;1271;61050;-26
2022/04/08 00:32:52;;;;;;;6.60;2.50;;;;;;;7.73;66.16;96812.14;104668;1273;61793;-26
2022/04/08 00:35:21;;;;;;;3.80;1.70;;;;;;;7.49;67.27;96813.61;105174;1271;74531;-27
2022/04/08 00:37:50;;;;;;;4.40;1.50;;;;;;;7.30;68.10;96812.64;104916;1271;75818;-28
2022/04/08 00:40:19;;;;;;;7.10;2.00;;;;;;;7.15;68.77;96803.26;104789;1271;74580;-27
2022/04/08 00:42:48;;;;;;;8.40;2.60;;;;;;;7.02;69.54;96793.73;104900;1271;62163;-28
2022/04/08 00:45:17;;;;;;;8.00;2.50;;;;;;;7.30;69.36;96793.73;104834;1271;61262;-28
2022/04/08 00:47:48;;;;;;;8.20;2.30;;;;;;;7.62;68.17;96787.23;104645;1273;75391;-27
2022/04/08 00:50:19;;;;;;;5.70;2.00;;;;;;;7.59;68.14;96780.37;104800;1271;75121;-28
2022/04/08 00:52:48;;;;;;;10.30;2.40;;;;;;;7.45;68.63;96783.08;104835;1271;74413;-27
2022/04/08 00:55:17;;;;;;;3.90;1.70;;;;;;;7.19;69.82;96784.05;104666;1274;61075;-27
2022/04/08 00:57:47;;;;;;;9.00;2.00;;;;;;;7.01;70.46;96784.02;104659;1273;62053;-27
2022/04/08 01:00:19;;;;;;;5.80;1.80;;;;;;;7.14;70.55;96786.27;104610;1274;75473;-27
2022/04/08 01:02:48;;;;;;;8.40;1.80;;;;;;;7.57;69.27;96783.60;104616;1273;76036;-27
2022/04/08 01:05:17;;;;;;;3.50;2.00;;;;;;;7.65;68.86;96778.58;104676;1273;74743;-27
2022/04/08 01:07:52;;;;;;;6.90;2.40;;;;;;;7.46;69.63;96776.60;104670;1273;62346;-27
2022/04/08 01:10:22;;;;;;;3.70;2.10;;;;;;;7.31;70.03;96777.66;104679;1275;61002;-27
2022/04/08 01:12:51;;;;;;;6.20;1.90;;;;;;;7.11;70.74;96772.65;104693;1273;75376;-27
2022/04/08 01:15:21;;;;;;;8.20;2.80;;;;;;;7.03;71.43;96776.48;104670;1273;76177;-27
2022/04/08 01:17:50;;;;;;;6.90;2.20;;;;;;;7.44;70.53;96779.67;104742;1273;74187;-26
2022/04/08 01:20:39;;;;;;;8.40;2.90;;;;;;;7.53;70.01;96774.50;104596;1273;63173;-26
2022/04/08 01:23:15;;;;;;;10.40;2.20;;;;;;;7.44;70.26;96769.55;104637;1274;61123;-27
2022/04/08 01:25:54;;;;;;;4.60;2.40;;;;;;;7.24;70.79;96767.63;104426;1273;74535;-27
2022/04/08 01:28:25;;;;;;;8.70;3.10;;;;;;;7.00;71.90;96766.88;104609;1274;76440;-27
2022/04/08 01:30:55;;;;;;;7.20;3.20;;;;;;;7.20;71.78;96770.66;104600;1273;72608;-26
2022/04/08 01:33:25;;;;;;;9.10;2.50;;;;;;;7.48;70.81;96779.37;104359;1274;62108;-26
2022/04/08 01:35:54;;;;;;;5.80;3.30;;;;;;;7.48;70.70;96787.98;104683;1273;62261;-27
2022/04/08 01:38:24;;;;;;;8.10;2.20;;;;;;;7.31;71.33;96781.58;104629;1273;75551;-27
2022/04/08 01:40:53;;;;;;;6.50;2.90;;;;;;;7.17;71.65;96786.70;104713;1276;76064;-27
2022/04/08 01:43:22;;;;;;;7.50;2.50;;;;;;;6.99;72.49;96793.98;104993;1273;74410;-27
2022/04/08 01:45:51;;;;;;;7.00;2.30;;;;;;;7.22;72.14;96790.98;105000;1273;62035;-27
2022/04/08 01:48:21;;;;;;;4.50;2.00;;;;;;;7.56;70.62;96782.93;104649;1273;61190;-27
2022/04/08 01:50:50;;;;;;;18.20;3.00;;;;;;;7.50;70.71;96778.06;104661;1273;75559;-27
2022/04/08 01:53:20;;;;;;;6.30;2.60;;;;;;;7.31;71.40;96772.95;104638;1274;76018;-27
2022/04/08 01:55:51;;;;;;;7.90;2.40;;;;;;;7.14;71.92;96771.07;104582;1274;74631;-27
2022/04/08 01:58:20;;;;;;;7.00;3.00;;;;;;;6.95;72.94;96775.27;104759;1273;63492;-27
2022/04/08 02:00:50;;;;;;;7.70;1.90;;;;;;;7.32;72.08;96772.71;104731;1273;61837;-27
2022/04/08 02:03:20;;;;;;;5.00;2.00;;;;;;;7.57;70.66;96768.02;104745;1273;76279;-27
2022/04/08 02:05:49;;;;;;;6.50;2.30;;;;;;;7.45;71.17;96761.81;104774;1273;73878;-27
2022/04/08 02:08:18;;;;;;;6.80;2.30;;;;;;;7.31;71.53;96749.90;104393;1273;489563;-26
2022/04/08 02:10:47;;;;;;;4.30;1.50;;;;;;;7.09;72.29;96754.01;104653;1273;62151;-26
2022/04/08 02:13:16;;;;;;;11.50;2.60;;;;;;;6.93;72.85;96750.48;104976;1272;61880;-26
2022/04/08 02:15:48;;;;;;;15.60;2.80;;;;;;;7.23;72.48;96751.37;104978;1273;75974;-27
2022/04/08 02:18:17;;;;;;;8.80;2.70;;;;;;;7.48;71.32;96750.33;104800;1273;75017;-27
2022/04/08 02:20:46;;;;;;;10.90;2.40;;;;;;;7.40;71.51;96744.20;104600;1273;74363;-27
2022/04/08 02:23:16;;;;;;;6.50;1.70;;;;;;;7.16;72.12;96758.74;104655;1273;61382;-26
2022/04/08 02:25:46;;;;;;;7.30;2.90;;;;;;;6.88;73.37;96757.52;104755;1273;61167;-26
2022/04/08 02:28:20;;;;;;;5.50;1.70;;;;;;;6.86;73.50;96751.57;104579;1273;74200;-27
2022/04/08 02:30:52;;;;;;;6.80;2.30;;;;;;;7.19;72.67;96756.58;104666;1273;75692;-27
2022/04/08 02:33:21;;;;;;;7.60;2.80;;;;;;;7.29;72.08;96754.70;104598;1273;74586;-26
2022/04/08 02:35:51;;;;;;;7.20;2.40;;;;;;;7.18;72.19;96746.80;104749;1273;62468;-27
2022/04/08 02:38:20;;;;;;;8.30;2.60;;;;;;;7.02;72.44;96745.53;104680;1273;62173;-27
2022/04/08 02:40:49;;;;;;;7.90;2.40;;;;;;;6.79;73.33;96736.23;104722;1273;75276;-27
2022/04/08 02:43:18;;;;;;;14.90;2.40;;;;;;;6.89;73.62;96739.30;104758;1273;75903;-27
2022/04/08 02:45:47;;;;;;;6.00;2.00;;;;;;;7.16;72.28;96731.34;104669;1273;74271;-27
2022/04/08 02:48:19;;;;;;;9.90;2.40;;;;;;;7.08;72.18;96718.52;104785;1273;61161;-26
2022/04/08 02:50:48;;;;;;;6.10;2.60;;;;;;;6.89;72.62;96708.08;104856;1273;61175;-27
2022/04/08 02:53:17;;;;;;;8.90;2.30;;;;;;;6.67;73.37;96686.70;104772;1273;75540;-27
2022/04/08 02:55:46;;;;;;;3.80;2.30;;;;;;;6.60;74.25;96667.42;104624;1273;75832;-26
2022/04/08 02:58:15;;;;;;;11.20;3.50;;;;;;;6.95;73.14;96659.20;104808;1272;74246;-26
2022/04/08 03:00:44;;;;;;;6.30;2.50;;;;;;;6.98;72.77;96654.86;104641;1273;61169;-26
2022/04/08 03:03:17;;;;;;;8.40;2.70;;;;;;;6.84;72.89;96664.16;104739;1273;61111;-26
2022/04/08 03:05:47;;;;;;;7.00;2.20;;;;;;;6.58;73.92;96685.75;104624;1274;75929;-27
2022/04/08 03:08:17;;;;;;;6.50;1.70;;;;;;;6.38;74.85;96696.73;104673;1273;76018;-26
2022/04/08 03:10:46;;;;;;;8.50;1.90;;;;;;;6.67;74.27;96708.14;104772;1273;76325;-26
2022/04/08 03:13:24;;;;;;;10.30;2.60;;;;;;;6.99;72.85;96700.54;104698;1273;62074;-26
2022/04/08 03:16:01;;;;;;;4.30;2.10;;;;;;;6.95;72.73;96709.88;104697;1273;62247;-27
2022/04/08 03:18:30;;;;;;;7.80;2.90;;;;;;;6.76;73.17;96718.59;104766;1273;73426;-27
2022/04/08 03:20:59;;;;;;;4.80;1.80;;;;;;;6.61;73.50;96741.16;104779;1273;76286;-26
2022/04/08 03:23:29;;;;;;;7.30;2.50;;;;;;;6.39;74.89;96740.07;104649;1273;74515;-26
2022/04/08 03:25:59;;;;;;;4.60;1.80;;;;;;;6.79;73.64;96738.08;104670;1273;61698;-26
2022/04/08 03:28:31;;;;;;;6.00;2.20;;;;;;;6.77;73.37;96738.11;104687;1273;62228;-26
2022/04/08 03:31:01;;;;;;;6.70;2.30;;;;;;;6.67;73.71;96739.71;104793;1273;75548;-27
2022/04/08 03:33:30;;;;;;;8.40;2.80;;;;;;;6.50;74.22;96730.55;104766;1273;76365;-26
2022/04/08 03:36:00;;;;;;;7.80;3.00;;;;;;;6.33;74.82;96718.92;104779;1273;74298;-27
2022/04/08 03:38:29;;;;;;;7.90;1.70;;;;;;;6.55;74.32;96712.10;104749;1273;61060;-27
2022/04/08 03:41:00;;;;;;;4.10;1.80;;;;;;;6.93;72.76;96711.77;104657;1273;61963;-28
2022/04/08 03:43:30;;;;;;;2.90;1.30;;;;;;;6.96;72.61;96713.80;104706;1273;73809;-27
2022/04/08 03:46:00;;;;;;;3.30;1.50;;;;;;;6.75;73.15;96717.23;104887;1273;76001;-26
2022/04/08 03:48:29;;;;;;;9.00;2.30;;;;;;;6.38;74.63;96723.55;105123;1273;73612;-26
2022/04/08 03:50:59;;;;;;;7.50;1.90;;;;;;;6.28;74.98;96724.64;104968;1273;61728;-26
2022/04/08 03:53:28;;;;;;;11.50;2.40;;;;;;;6.52;74.58;96728.42;104822;1273;61437;-27
2022/04/08 03:55:58;;;;;;;13.10;2.10;;;;;;;6.89;73.07;96732.79;104854;1272;74378;-26
2022/04/08 03:58:29;;;;;;;12.00;2.20;;;;;;;6.76;73.04;96734.08;104784;1273;76182;-26
2022/04/08 04:00:58;;;;;;;6.20;2.20;;;;;;;6.62;73.47;96734.83;104734;1273;74504;-25
2022/04/08 04:03:27;;;;;;;4.70;2.10;;;;;;;6.40;74.18;96729.76;104674;1273;62027;-26
2022/04/08 04:05:58;;;;;;;3.40;1.50;;;;;;;6.15;75.29;96733.96;104696;1273;61828;-27
2022/04/08 04:08:27;;;;;;;12.60;2.90;;;;;;;6.35;75.08;96726.52;104645;1273;74811;-27
2022/04/08 04:10:57;;;;;;;3.20;1.70;;;;;;;6.72;73.53;96718.64;104688;1273;76154;-28
2022/04/08 04:13:28;;;;;;;4.20;2.60;;;;;;;6.83;72.86;96707.52;104782;1273;75304;-29
2022/04/08 04:15:57;;;;;;;9.80;3.10;;;;;;;6.63;73.51;96712.30;104671;1273;62346;-28
2022/04/08 04:18:27;;;;;;;6.10;2.60;;;;;;;6.49;74.08;96712.29;104756;1273;61865;-28
2022/04/08 04:20:56;;;;;;;6.60;3.10;;;;;;;6.39;74.87;96708.73;104923;1273;75987;-28
2022/04/08 04:23:25;;;;;;;8.40;2.90;;;;;;;6.86;73.45;96711.66;105005;1273;76014;-27
2022/04/08 04:25:54;;;;;;;10.80;3.50;;;;;;;7.08;72.43;96713.56;104958;1273;74533;-29
2022/04/08 04:28:24;;;;;;;6.80;3.10;;;;;;;7.08;72.36;96718.20;105088;1273;61856;-28
2022/04/08 04:30:53;;;;;;;11.60;3.70;;;;;;;6.98;72.77;96722.30;104853;1273;62045;-31
2022/04/08 04:33:23;;;;;;;16.80;3.00;;;;;;;7.01;72.65;96715.55;104868;1274;76253;-30
2022/04/08 04:35:59;;;;;;;9.40;2.70;;;;;;;7.18;72.54;96712.19;104854;1273;76006;-28
2022/04/08 04:38:29;;;;;;;8.70;3.10;;;;;;;7.62;71.15;96707.04;104799;1273;72178;-27
2022/04/08 04:41:00;;;;;;;14.50;4.50;;;;;;;7.75;69.97;96710.83;104730;1273;60996;-27
2022/04/08 04:43:30;;;;;;;4.40;3.10;;;;;;;7.75;70.34;96709.37;104757;1273;61997;-28
2022/04/08 04:46:00;;;;;;;7.20;2.70;;;;;;;7.71;69.99;96702.16;104672;1273;76850;-27
2022/04/08 04:48:30;;;;;;;9.40;3.30;;;;;;;7.51;70.53;96700.82;104752;1273;75828;-27
2022/04/08 04:50:59;;;;;;;7.00;2.30;;;;;;;7.63;70.52;96700.56;104614;1273;74372;-27
2022/04/08 04:53:28;;;;;;;10.90;3.90;;;;;;;7.93;69.51;96703.58;104756;1273;61198;-28
2022/04/08 04:55:58;;;;;;;11.40;3.70;;;;;;;8.02;69.08;96702.84;105134;1273;61100;-27
2022/04/08 04:58:29;;;;;;;3.80;2.50;;;;;;;7.81;69.40;96706.30;104713;1273;75261;-28
2022/04/08 05:00:58;;;;;;;5.50;3.00;;;;;;;7.61;70.06;96710.11;105135;1273;76030;-27
2022/04/08 05:03:28;;;;;;;15.10;3.10;;;;;;;7.32;70.99;96714.34;105125;1273;74442;-27
2022/04/08 05:05:57;;;;;;;10.20;3.30;;;;;;;7.19;71.59;96720.15;105119;1273;61146;-27
2022/04/08 05:08:26;;;;;;;3.20;1.80;;;;;;;7.37;71.67;96719.73;105097;1273;62053;-27
2022/04/08 05:10:55;;;;;;;8.80;3.00;;;;;;;7.77;70.04;96722.00;105066;1273;74526;-27
2022/04/08 05:13:25;;;;;;;9.10;3.10;;;;;;;7.74;69.92;96727.92;104733;1273;75989;-27
2022/04/08 05:16:01;;;;;;;4.90;2.20;;;;;;;7.51;71.06;96737.73;104968;1273;76411;-27
2022/04/08 05:18:30;;;;;;;4.70;2.30;;;;;;;7.52;70.97;96725.69;104859;1272;61148;-27
2022/04/08 05:21:19;;;;;;;5.30;3.20;;;;;;;7.43;71.24;96728.03;104762;1273;62648;-28
2022/04/08 05:23:48;;;;;;;9.10;2.90;;;;;;;7.63;70.75;96728.67;104777;1273;75569;-28
2022/04/08 05:26:18;;;;;;;7.90;2.50;;;;;;;7.99;69.56;96730.13;104792;1273;76168;-27
2022/04/08 05:28:48;;;;;;;8.10;3.30;;;;;;;7.97;69.21;96728.96;104741;1273;73920;-27
2022/04/08 05:31:17;;;;;;;6.20;3.10;;;;;;;7.88;69.32;96727.40;104813;1273;61074;-28
2022/04/08 05:33:47;;;;;;;6.70;2.40;;;;;;;7.72;69.63;96733.27;104703;1273;62254;-28
2022/04/08 05:36:16;;;;;;;16.40;3.90;;;;;;;7.48;70.77;96738.89;104784;1273;75755;-28
2022/04/08 05:38:48;;;;;;;10.60;2.80;;;;;;;7.52;71.22;96745.72;104769;1273;76395;-27
2022/04/08 05:41:17;;;;;;;11.10;3.40;;;;;;;8.03;69.43;96743.34;104673;1273;74647;-27
2022/04/08 05:43:46;;;;;;;8.00;3.20;;;;;;;8.10;68.90;96742.35;104763;1273;62161;-26
2022/04/08 05:46:16;;;;;;;9.90;2.20;;;;;;;8.17;68.50;96744.56;104799;1273;61055;-27
2022/04/08 05:48:45;;;;;;;7.10;2.90;;;;;;;7.99;69.09;96742.85;105077;1273;75546;-27
2022/04/08 05:51:15;;;;;;;10.80;3.40;;;;;;;7.86;69.42;96740.30;104985;1273;76003;-26
2022/04/08 05:53:44;;;;;;;5.90;2.40;;;;;;;7.63;70.41;96739.25;104762;1273;74560;-26
2022/04/08 05:56:13;;;;;;;5.00;2.30;;;;;;;7.67;70.76;96734.35;104738;1273;63678;-27
2022/04/08 05:58:42;;;;;;;8.20;3.30;;;;;;;8.08;69.41;96736.06;104734;1271;62070;-26
2022/04/08 06:01:12;;;;;;;12.10;3.50;;;;;;;8.27;68.70;96736.08;104813;1271;75316;-26
2022/04/08 06:03:42;;;;;;;14.00;4.00;;;;;;;8.21;68.78;96736.39;104974;1271;76015;-25
2022/04/08 06:06:11;;;;;;;8.00;2.80;;;;;;;8.13;69.01;96737.90;104973;1271;74409;-26
2022/04/08 06:08:40;;;;;;;7.00;3.30;;;;;;;8.00;69.50;96741.23;104948;1273;61200;-26
2022/04/08 06:11:09;;;;;;;9.20;3.80;;;;;;;7.85;70.02;96744.34;104984;1271;62626;-26
2022/04/08 06:13:38;;;;;;;12.10;3.30;;;;;;;7.91;70.08;96748.35;105049;1273;75309;-26
2022/04/08 06:16:19;;;;;;;12.70;3.80;;;;;;;8.52;68.49;96755.12;104955;1273;76010;-26
2022/04/08 06:18:48;;;;;;;7.50;3.00;;;;;;;8.82;67.28;96762.30;104987;1271;73132;-26
2022/04/08 06:21:33;;;;;;;11.80;3.10;;;;;;;8.69;67.15;96756.77;105038;1272;61179;-26
2022/04/08 06:24:05;;;;;;;10.60;4.60;;;;;;;8.76;67.12;96762.92;105034;1273;61191;-26
2022/04/08 07:05:14;;;;;;;11.40;3.70;;;;;;;9.55;67.64;96771.29;105064;1271;61146;-27
2022/04/08 07:07:47;;;;;;;6.40;2.80;;;;;;;9.41;68.94;96780.18;104862;1271;61038;-27
2022/04/08 07:10:18;;;;;;;7.20;3.10;;;;;;;9.24;70.24;96783.16;104731;1273;75466;-27
2022/04/08 07:12:47;;;;;;;6.20;3.00;;;;;;;9.14;71.08;96784.78;104758;1271;76071;-27
2022/04/08 07:15:21;;;;;;;8.20;3.30;;;;;;;9.27;71.82;96781.39;104706;1273;74618;-27
2022/04/08 07:17:50;;;;;;;7.10;3.00;;;;;;;9.65;71.05;96788.04;104870;1271;62478;-27
2022/04/08 07:20:20;;;;;;;8.00;3.40;;;;;;;9.72;71.22;96794.89;105020;1271;62010;-26
2022/04/08 07:22:51;;;;;;;6.50;3.40;;;;;;;9.65;71.86;96800.39;104816;1271;75599;-26
2022/04/08 07:25:21;;;;;;;5.00;2.80;;;;;;;9.49;72.76;96802.47;104945;1271;76046;-26
2022/04/08 07:27:52;;;;;;;6.00;2.60;;;;;;;9.21;74.58;96792.40;105052;1271;72292;-26
2022/04/08 07:30:21;;;;;;;9.20;3.70;;;;;;;9.27;75.26;96791.65;104777;1271;62210;-25
2022/04/08 07:32:52;;;;;;;6.90;3.00;;;;;;;9.67;74.12;96800.67;104815;1273;61035;-26
2022/04/08 07:35:23;;;;;;;5.00;2.90;;;;;;;9.81;73.44;96805.15;104862;1271;75604;-26
2022/04/08 07:37:53;;;;;;;5.80;3.10;;;;;;;9.67;74.09;96815.14;104674;1273;76104;-26
2022/04/08 07:40:26;;;;;;;7.70;3.50;;;;;;;9.50;74.55;96811.20;104774;1271;74135;-27
2022/04/08 07:42:55;;;;;;;2.90;2.60;;;;;;;9.22;76.85;96814.30;104620;1273;62640;-25
2022/04/08 07:45:29;;;;;;;4.00;2.30;;;;;;;9.27;77.11;96806.16;104809;1271;61304;-26
2022/04/08 07:47:59;;;;;;;4.00;2.60;;;;;;;9.80;75.56;96799.39;104712;1271;75874;-25
2022/04/08 07:50:29;;;;;;;5.40;3.40;;;;;;;9.97;74.84;96794.20;105050;1271;75980;-27
2022/04/08 07:53:00;;;;;;;10.90;3.30;;;;;;;9.84;75.08;96794.77;104972;1272;74785;-28
2022/04/08 07:55:30;;;;;;;9.10;3.60;;;;;;;9.41;76.40;96792.48;104903;1271;61158;-26
2022/04/08 07:57:59;;;;;;;7.00;2.70;;;;;;;9.25;77.16;96813.10;104766;1273;61141;-26
2022/04/08 08:00:31;;;;;;;6.80;2.50;;;;;;;9.25;78.32;96824.54;104844;1273;75990;-28
2022/04/08 08:03:00;;;;;;;6.80;3.60;;;;;;;9.60;77.00;96828.48;104871;1272;74975;-29
2022/04/08 08:06:21;;;;;;;8.60;2.50;;;;;;;9.90;75.67;96841.23;104890;1271;74555;-29
2022/04/08 08:08:51;;;;;;;5.60;3.60;;;;;;;9.36;77.63;96833.38;105169;1271;61263;-31
2022/04/08 08:11:21;;;;;;;5.80;3.10;;;;;;;9.22;77.69;96830.73;105141;1271;61105;-30
2022/04/08 08:13:58;;;;;;;8.40;4.00;;;;;;;9.47;77.23;96839.23;105015;1271;75566;-30
2022/04/08 08:16:29;;;;;;;7.50;3.00;;;;;;;9.76;76.37;96844.88;104860;1271;76131;-31
2022/04/08 08:18:59;;;;;;;7.60;4.00;;;;;;;9.87;75.42;96850.75;104820;1271;73866;-30
2022/04/08 08:21:29;;;;;;;6.10;3.20;;;;;;;9.72;75.53;96855.15;104810;1271;61125;-30
2022/04/08 08:24:00;;;;;;;5.40;3.10;;;;;;;9.44;77.01;96859.36;104811;1271;61546;-31
2022/04/08 08:26:30;;;;;;;9.20;3.10;;;;;;;9.30;77.47;96854.95;104763;1272;76442;-29
2022/04/08 08:28:59;;;;;;;8.10;3.30;;;;;;;9.64;76.95;96859.39;104870;1271;76013;-29
2022/04/08 08:31:28;;;;;;;5.20;3.30;;;;;;;9.76;76.24;96861.14;104859;1271;74390;-26
2022/04/08 08:33:58;;;;;;;4.70;3.30;;;;;;;9.49;76.72;96867.65;105122;1271;61769;-28
2022/04/08 08:36:29;;;;;;;7.60;4.20;;;;;;;9.16;78.58;96886.88;104966;1272;61134;-27
2022/04/08 08:39:01;;;;;;;4.00;2.30;;;;;;;8.65;79.14;96886.22;104934;1271;75596;-25
2022/04/08 08:41:31;;;;;;;3.80;2.00;;;;;;;8.53;76.55;96875.98;104788;1271;75130;-25
2022/04/08 08:44:03;;;;;;;7.10;2.60;;;;;;;8.21;80.96;96902.80;104792;1271;74428;-25
2022/04/08 08:52:54;;;;;;;7.10;2.60;;;;;;;-59.88;40.43;48443.64;53537;1274;441163091;-27
2022/04/08 09:02:48;;;;;;;7.10;2.60;;;;;;;-128.00;-1.00;-1.00;2;579208998;579208998;-27
2022/04/08 09:12:59;;;;;;;7.10;2.60;;;;;;;-128.00;-1.00;-1.00;2;597223209;597223209;-26
2022/04/08 09:23:09;;;;;;;7.10;2.60;;;;;;;-128.00;-1.00;-1.00;2;597214546;597214546;-27
2022/04/08 09:30:47;;;;;;;7.10;2.60;;;;;;;-128.00;-1.00;-1.00;2;444161920;444161920;-25
2022/04/08 09:37:31;;;;;;;7.10;2.60;;;;;;;-128.00;-1.00;-1.00;2;390141646;390141646;-28
2022/04/08 09:47:23;;;;;;;7.10;2.60;;;;;;;-128.00;-1.00;-1.00;2;579217861;579217861;-28
2022/04/08 09:57:36;;;;;;;7.10;2.60;;;;;;;-128.00;-1.00;-1.00;2;597221678;597221678;-28
2022/04/08 10:07:46;;;;;;;7.10;2.60;;;;;;;-128.00;-1.00;-1.00;2;597216114;597216114;-28
2022/04/08 10:15:28;;;;;;;7.10;2.60;;;;;;;-128.00;-1.00;-1.00;2;444167359;444167359;-29
2022/04/08 10:22:16;;;;;;;7.10;2.60;;;;;;;-128.00;-1.00;-1.00;2;390143203;390143203;-28
2022/04/08 10:32:14;;;;;;;7.10;2.60;;;;;;;-128.00;-1.00;-1.00;2;579213170;579213170;-29
2022/04/08 10:42:29;;;;;;;7.10;2.60;;;;;;;-128.00;-1.00;-1.00;2;597224200;597224200;-29
2022/04/08 10:52:39;;;;;;;7.10;2.60;;;;;;;-128.00;-1.00;-1.00;2;597221357;597221357;-29
2022/04/08 11:00:19;;;;;;;7.10;2.60;;;;;;;-128.00;-1.00;-1.00;2;444163250;444163250;-27
2022/04/08 11:07:03;;;;;;;7.10;2.60;;;;;;;-128.00;-1.00;-1.00;2;390145733;390145733;-27
2022/04/08 11:16:56;;;;;;;7.10;2.60;;;;;;;-128.00;-1.00;-1.00;2;579216387;579216387;-26
2022/04/08 11:27:08;;;;;;;7.10;2.60;;;;;;;-128.00;-1.00;-1.00;2;597222473;597222473;-26
2022/04/08 11:37:25;;;;;;;7.10;2.60;;;;;;;-128.00;-1.00;-1.00;2;597224102;597224102;-26
2022/04/08 11:45:04;;;;;;;7.10;2.60;;;;;;;-128.00;-1.00;-1.00;2;444163709;444163709;-26
2022/04/08 11:51:59;;;;;;;7.10;2.60;;;;;;;-128.00;-1.00;-1.00;2;390147588;390147588;-28
2022/04/08 12:01:50;;;;;;;7.10;2.60;;;;;;;-128.00;-1.00;-1.00;2;579217884;579217884;-28
2022/04/08 12:12:25;;;;;;;7.10;2.60;;;;;;;-128.00;-1.00;-1.00;2;597222935;597222935;-28
2022/04/08 12:22:36;;;;;;;7.10;2.60;;;;;;;-128.00;-1.00;-1.00;2;597228396;597228396;-28
2022/04/08 12:30:14;;;;;;;7.10;2.60;;;;;;;-128.00;-1.00;-1.00;2;444166161;444166161;-29
2022/04/08 12:36:57;;;;;;;7.10;2.60;;;;;;;-128.00;-1.00;-1.00;2;390144513;390144513;-28
2022/04/08 12:46:49;;;;;;;7.10;2.60;;;;;;;-128.00;-1.00;-1.00;2;579210428;579210428;-28
2022/04/08 12:56:59;;;;;;;7.10;2.60;;;;;;;-128.00;-1.00;-1.00;2;597219307;597219307;-28
2022/04/08 13:07:11;;;;;;;7.10;2.60;;;;;;;-128.00;-1.00;-1.00;2;597212787;597212787;-27
2022/04/08 13:14:50;;;;;;;7.10;2.60;;;;;;;-128.00;-1.00;-1.00;2;444161813;444161813;-27
2022/04/08 13:21:33;;;;;;;7.10;2.60;;;;;;;-128.00;-1.00;-1.00;2;390149401;390149401;-27
2022/04/08 13:31:25;;;;;;;7.10;2.60;;;;;;;-128.00;-1.00;-1.00;2;579215478;579215478;-27
2022/04/08 13:41:36;;;;;;;7.10;2.60;;;;;;;-128.00;-1.00;-1.00;2;597222136;597222136;-27
2022/04/08 13:51:46;;;;;;;7.10;2.60;;;;;;;-128.00;-1.00;-1.00;2;597221777;597221777;-26
2022/04/08 13:59:22;;;;;;;7.10;2.60;;;;;;;-128.00;-1.00;-1.00;2;444167735;444167735;-26
2022/04/08 14:13:51;;;;;;;7.10;2.60;;;;;;;-128.00;-1.00;-1.00;2;395280711;395280711;-29
2022/04/08 14:23:44;;;;;;;7.10;2.60;;;;;;;-128.00;-1.00;-1.00;2;579220970;579220970;-26
2022/04/08 14:33:54;;;;;;;7.10;2.60;;;;;;;-128.00;-1.00;-1.00;2;597217056;597217056;-25
2022/04/08 14:44:04;;;;;;;7.10;2.60;;;;;;;-128.00;-1.00;-1.00;2;597221632;597221632;-28
2022/04/08 14:51:40;;;;;;;7.10;2.60;;;;;;;-128.00;-1.00;-1.00;2;444166771;444166771;-28
2022/04/08 14:58:23;;;;;;;7.10;2.60;;;;;;;-128.00;-1.00;-1.00;2;390143274;390143274;-26
2022/04/08 15:08:15;;;;;;;7.10;2.60;;;;;;;-128.00;-1.00;-1.00;2;579209723;579209723;-26
2022/04/08 15:18:48;;;;;;;7.10;2.60;;;;;;;-128.00;-1.00;-1.00;2;601719951;601719951;-26
2022/04/08 15:29:22;;;;;;;7.10;2.60;;;;;;;-128.00;-1.00;-1.00;2;601717434;601717434;-27
